メインページ
METAR-TAF:

METAR-TAF

空港 :

ピッツバーグ国際空港

ピッツバーグ, ペンシルバニア州, アメリカ合衆国

緯度: 40-30-14N, 経度: 080-15-59W, 海抜: 366m

現時点の気象観測

当レポートは24分前の06:51(UTC)に作成
西/南西の風 3kt
気温 23°C
湿度 89%
気圧 1013 hPa
視程: 16.1km
高度6000ftの千切れ雲あり
高度9000ftの曇り
小雨

METAR: KPIT 170651Z 24003KT 10SM -RA BKN060 OVC090 23/21 A2990 RMK AO2 RAB12 SLP120 P0000 T02280211

時間: 03:15 (07:15 UTC)

予報

当レポートは1時間55分前の05:20(UTC)に作成
予報は17日の 06時(UTC)から 18日の 12時(UTC)まで有効
変向風 4kt
視程: 10km
高度8000ftの千切れ雲あり
17日の 1100時(UTC)から
西/北西の風 7kt
視程: 10km
高度2500ftの千切れ雲あり, 積乱雲.
近辺で激しい雷雨
17日の 1500時(UTC)から
北/北西の風 5kt
視程: 10km
高度2500ftの千切れ雲あり
近辺でにわか雨
17日の 1900時(UTC)から
北西の風 10kt、最大18ktの突風を伴う
視程: 10km
高度4000ftの雲は散在している
18日の 0000時(UTC)から
変向風 5kt
視程: 10km
晴天

TAF: KPIT 170520Z 1706/1812 VRB04KT P6SM BKN080 FM171100 29007KT P6SM VCTS BKN025CB FM171500 34005KT P6SM VCSH BKN025 FM171900 31010G18KT P6SM SCT040 FM180000 VRB05KT P6SM SKC

4,000以上の空港の気象観測と天気予報(METAR報とTAF報)

利用可能な観測所は地図上に黄色い丸と赤い丸で示す。

丸の上にカーソルを重ねると観測所名を参照できる。

次にクリックすると気象観測と天気予報を参照できる。

マップの切り替え:黒色「×」印の緑ボタンをクリックして拡大、「-」印の緑ボタンをクリックして縮小、緑色の三角印をクリックして隣りの地図に切り替え


METAR-TAF: